sensor_id;sensor_type;location;lat;lon;timestamp;pressure;altitude;pressure_sealevel;temperature;humidity
44140;BME280;29803;51.048;4.686;2023-04-01T00:01:46;99302.38;;;9.22;100.00
44140;BME280;29803;51.048;4.686;2023-04-01T00:04:16;99320.28;;;9.21;100.00
44140;BME280;29803;51.048;4.686;2023-04-01T00:06:47;99309.94;;;9.18;100.00
44140;BME280;29803;51.048;4.686;2023-04-01T00:09:17;99317.34;;;9.16;100.00
44140;BME280;29803;51.048;4.686;2023-04-01T00:11:48;99316.16;;;9.19;100.00
44140;BME280;29803;51.048;4.686;2023-04-01T00:14:18;99319.19;;;9.16;100.00
44140;BME280;29803;51.048;4.686;2023-04-01T00:16:49;99322.69;;;9.16;100.00
44140;BME280;29803;51.048;4.686;2023-04-01T00:19:20;99327.59;;;9.13;100.00
44140;BME280;29803;51.048;4.686;2023-04-01T00:21:50;99327.59;;;9.13;100.00
44140;BME280;29803;51.048;4.686;2023-04-01T00:24:22;99322.09;;;9.14;100.00
44140;BME280;29803;51.048;4.686;2023-04-01T00:26:53;99324.75;;;9.14;100.00
44140;BME280;29803;51.048;4.686;2023-04-01T00:29:23;99329.09;;;9.15;100.00
44140;BME280;29803;51.048;4.686;2023-04-01T00:31:58;99331.75;;;9.15;100.00
44140;BME280;29803;51.048;4.686;2023-04-01T00:34:28;99329.09;;;9.15;100.00
44140;BME280;29803;51.048;4.686;2023-04-01T00:36:59;99333.78;;;9.13;100.00
44140;BME280;29803;51.048;4.686;2023-04-01T00:39:31;99332.97;;;9.13;100.00
44140;BME280;29803;51.048;4.686;2023-04-01T00:42:03;99335.47;;;9.14;100.00
44140;BME280;29803;51.048;4.686;2023-04-01T00:44:34;99345.34;;;9.14;100.00
44140;BME280;29803;51.048;4.686;2023-04-01T00:47:04;99331.31;;;9.12;100.00
44140;BME280;29803;51.048;4.686;2023-04-01T00:49:39;99345.34;;;9.14;100.00
44140;BME280;29803;51.048;4.686;2023-04-01T00:52:11;99340.00;;;9.14;100.00
44140;BME280;29803;51.048;4.686;2023-04-01T00:54:45;99360.97;;;9.17;100.00
44140;BME280;29803;51.048;4.686;2023-04-01T00:57:22;99338.97;;;9.15;100.00
44140;BME280;29803;51.048;4.686;2023-04-01T00:59:54;99353.97;;;9.16;100.00
44140;BME280;29803;51.048;4.686;2023-04-01T01:02:26;99345.97;;;9.16;100.00
44140;BME280;29803;51.048;4.686;2023-04-01T01:04:57;99350.50;;;9.15;100.00
44140;BME280;29803;51.048;4.686;2023-04-01T01:07:49;99350.94;;;9.19;100.00
44140;BME280;29803;51.048;4.686;2023-04-01T01:10:30;99343.28;;;9.16;100.00
44140;BME280;29803;51.048;4.686;2023-04-01T01:13:21;99346.78;;;9.16;100.00
44140;BME280;29803;51.048;4.686;2023-04-01T01:16:22;99351.31;;;9.16;100.00
44140;BME280;29803;51.048;4.686;2023-04-01T01:27:31;99349.66;;;9.15;100.00
44140;BME280;29803;51.048;4.686;2023-04-01T01:30:35;99359.72;;;9.13;100.00
44140;BME280;29803;51.048;4.686;2023-04-01T01:33:25;99356.03;;;9.14;100.00
44140;BME280;29803;51.048;4.686;2023-04-01T01:36:06;99355.19;;;9.13;100.00
44140;BME280;29803;51.048;4.686;2023-04-01T01:38:41;99361.38;;;9.14;100.00
44140;BME280;29803;51.048;4.686;2023-04-01T01:41:12;99354.81;;;9.16;100.00
44140;BME280;29803;51.048;4.686;2023-04-01T01:43:47;99367.38;;;9.16;100.00
44140;BME280;29803;51.048;4.686;2023-04-01T01:46:22;99367.38;;;9.16;100.00
44140;BME280;29803;51.048;4.686;2023-04-01T01:48:55;99370.03;;;9.16;100.00
44140;BME280;29803;51.048;4.686;2023-04-01T01:51:27;99366.09;;;9.12;100.00
44140;BME280;29803;51.048;4.686;2023-04-01T01:53:58;99368.75;;;9.12;100.00
44140;BME280;29803;51.048;4.686;2023-04-01T01:56:29;99377.16;;;9.08;100.00
44140;BME280;29803;51.048;4.686;2023-04-01T01:59:14;99376.59;;;9.13;100.00
44140;BME280;29803;51.048;4.686;2023-04-01T02:01:52;99385.47;;;9.14;100.00
44140;BME280;29803;51.048;4.686;2023-04-01T02:04:25;99385.47;;;9.14;100.00
44140;BME280;29803;51.048;4.686;2023-04-01T02:07:00;99385.47;;;9.14;100.00
44140;BME280;29803;51.048;4.686;2023-04-01T02:09:32;99389.97;;;9.13;100.00
44140;BME280;29803;51.048;4.686;2023-04-01T02:12:07;99390.38;;;9.10;100.00
44140;BME280;29803;51.048;4.686;2023-04-01T02:14:59;99398.19;;;9.12;100.00
44140;BME280;29803;51.048;4.686;2023-04-01T02:17:32;99402.91;;;9.10;100.00
44140;BME280;29803;51.048;4.686;2023-04-01T02:20:07;99402.72;;;9.11;100.00
44140;BME280;29803;51.048;4.686;2023-04-01T02:22:41;99412.78;;;9.09;100.00
44140;BME280;29803;51.048;4.686;2023-04-01T02:25:20;99410.94;;;9.10;100.00
44140;BME280;29803;51.048;4.686;2023-04-01T02:27:52;99413.16;;;9.06;100.00
44140;BME280;29803;51.048;4.686;2023-04-01T02:30:27;99414.38;;;9.03;100.00
44140;BME280;29803;51.048;4.686;2023-04-01T02:32:58;99414.38;;;9.03;100.00
44140;BME280;29803;51.048;4.686;2023-04-01T02:35:30;99423.03;;;9.05;100.00
44140;BME280;29803;51.048;4.686;2023-04-01T02:38:00;99424.91;;;9.05;100.00
44140;BME280;29803;51.048;4.686;2023-04-01T02:40:42;99422.38;;;9.03;100.00
44140;BME280;29803;51.048;4.686;2023-04-01T02:43:13;99420.13;;;9.00;100.00
44140;BME280;29803;51.048;4.686;2023-04-01T02:45:43;99428.72;;;8.96;100.00
44140;BME280;29803;51.048;4.686;2023-04-01T02:48:14;99433.03;;;8.97;100.00
44140;BME280;29803;51.048;4.686;2023-04-01T02:50:45;99426.22;;;8.94;100.00
44140;BME280;29803;51.048;4.686;2023-04-01T02:53:16;99430.75;;;8.94;100.00
44140;BME280;29803;51.048;4.686;2023-04-01T02:55:46;99440.59;;;8.93;100.00
44140;BME280;29803;51.048;4.686;2023-04-01T02:58:20;99431.94;;;8.91;100.00
44140;BME280;29803;51.048;4.686;2023-04-01T03:00:50;99432.78;;;8.92;100.00
44140;BME280;29803;51.048;4.686;2023-04-01T03:03:21;99434.81;;;8.90;100.00
44140;BME280;29803;51.048;4.686;2023-04-01T03:05:51;99440.16;;;8.90;100.00
44140;BME280;29803;51.048;4.686;2023-04-01T03:08:25;99450.03;;;8.89;100.00
44140;BME280;29803;51.048;4.686;2023-04-01T03:10:55;99444.69;;;8.89;100.00
44140;BME280;29803;51.048;4.686;2023-04-01T03:13:26;99453.72;;;8.88;100.00
44140;BME280;29803;51.048;4.686;2023-04-01T03:15:56;99455.56;;;8.88;100.00
44140;BME280;29803;51.048;4.686;2023-04-01T03:18:27;99465.25;;;8.89;100.00
44140;BME280;29803;51.048;4.686;2023-04-01T03:21:12;99464.81;;;8.85;100.00
44140;BME280;29803;51.048;4.686;2023-04-01T03:23:43;99462.13;;;8.85;100.00
44140;BME280;29803;51.048;4.686;2023-04-01T03:26:14;99475.31;;;8.87;100.00
44140;BME280;29803;51.048;4.686;2023-04-01T03:28:45;99472.00;;;8.85;100.00
44140;BME280;29803;51.048;4.686;2023-04-01T03:31:15;99474.69;;;8.85;100.00
44140;BME280;29803;51.048;4.686;2023-04-01T03:33:46;99484.16;;;8.87;100.00
44140;BME280;29803;51.048;4.686;2023-04-01T03:36:17;99482.50;;;8.86;100.00
44140;BME280;29803;51.048;4.686;2023-04-01T03:38:48;99485.19;;;8.86;100.00
44140;BME280;29803;51.048;4.686;2023-04-01T03:41:18;99487.03;;;8.86;100.00
44140;BME280;29803;51.048;4.686;2023-04-01T03:43:49;99490.72;;;8.85;100.00
44140;BME280;29803;51.048;4.686;2023-04-01T03:46:20;99484.53;;;8.84;100.00
44140;BME280;29803;51.048;4.686;2023-04-01T03:48:50;99488.31;;;8.90;100.00
44140;BME280;29803;51.048;4.686;2023-04-01T03:51:21;99497.72;;;8.86;100.00
44140;BME280;29803;51.048;4.686;2023-04-01T03:53:51;99498.91;;;8.83;100.00
44140;BME280;29803;51.048;4.686;2023-04-01T03:56:22;99495.59;;;8.81;100.00
44140;BME280;29803;51.048;4.686;2023-04-01T03:58:52;99498.47;;;8.79;100.00
44140;BME280;29803;51.048;4.686;2023-04-01T04:01:23;99504.47;;;8.81;100.00
44140;BME280;29803;51.048;4.686;2023-04-01T04:03:54;99510.00;;;8.80;100.00
44140;BME280;29803;51.048;4.686;2023-04-01T04:06:28;99508.50;;;8.77;100.00
44140;BME280;29803;51.048;4.686;2023-04-01T04:08:58;99524.56;;;8.77;100.00
44140;BME280;29803;51.048;4.686;2023-04-01T04:11:30;99518.59;;;8.75;100.00
44140;BME280;29803;51.048;4.686;2023-04-01T04:14:02;99523.94;;;8.75;100.00
44140;BME280;29803;51.048;4.686;2023-04-01T04:16:35;99529.09;;;8.77;100.00
44140;BME280;29803;51.048;4.686;2023-04-01T04:19:06;99526.81;;;8.74;100.00
44140;BME280;29803;51.048;4.686;2023-04-01T04:21:37;99531.28;;;8.73;100.00
44140;BME280;29803;51.048;4.686;2023-04-01T04:24:08;99531.69;;;8.70;100.00
44140;BME280;29803;51.048;4.686;2023-04-01T04:26:38;99532.31;;;8.72;100.00
44140;BME280;29803;51.048;4.686;2023-04-01T04:29:09;99535.38;;;8.69;100.00
44140;BME280;29803;51.048;4.686;2023-04-01T04:31:39;99538.50;;;8.73;100.00
44140;BME280;29803;51.048;4.686;2023-04-01T04:34:10;99534.81;;;8.74;100.00
44140;BME280;29803;51.048;4.686;2023-04-01T04:36:40;99541.81;;;8.75;100.00
44140;BME280;29803;51.048;4.686;2023-04-01T04:39:11;99538.50;;;8.73;100.00
44140;BME280;29803;51.048;4.686;2023-04-01T04:41:41;99542.84;;;8.74;100.00
44140;BME280;29803;51.048;4.686;2023-04-01T04:44:12;99548.63;;;8.77;100.00
44140;BME280;29803;51.048;4.686;2023-04-01T04:46:42;99556.66;;;8.77;100.00
44140;BME280;29803;51.048;4.686;2023-04-01T04:49:13;99556.47;;;8.79;100.00
44140;BME280;29803;51.048;4.686;2023-04-01T04:51:43;99564.03;;;8.75;100.00
44140;BME280;29803;51.048;4.686;2023-04-01T04:54:14;99557.03;;;8.74;100.00
44140;BME280;29803;51.048;4.686;2023-04-01T04:56:45;99557.03;;;8.74;100.00
44140;BME280;29803;51.048;4.686;2023-04-01T04:59:15;99559.88;;;8.73;100.00
44140;BME280;29803;51.048;4.686;2023-04-01T05:01:46;99574.94;;;8.74;100.00
44140;BME280;29803;51.048;4.686;2023-04-01T05:04:16;99578.44;;;8.74;100.00
44140;BME280;29803;51.048;4.686;2023-04-01T05:06:47;99575.75;;;8.74;100.00
44140;BME280;29803;51.048;4.686;2023-04-01T05:09:17;99578.59;;;8.73;100.00
44140;BME280;29803;51.048;4.686;2023-04-01T05:11:48;99576.75;;;8.73;100.00
44140;BME280;29803;51.048;4.686;2023-04-01T05:14:18;99581.47;;;8.71;100.00
44140;BME280;29803;51.048;4.686;2023-04-01T05:16:49;99591.13;;;8.72;100.00
44140;BME280;29803;51.048;4.686;2023-04-01T05:19:20;99595.47;;;8.73;100.00
44140;BME280;29803;51.048;4.686;2023-04-01T05:21:51;99589.47;;;8.71;100.00
44140;BME280;29803;51.048;4.686;2023-04-01T05:24:23;99597.50;;;8.71;100.00
44140;BME280;29803;51.048;4.686;2023-04-01T05:26:53;99606.91;;;8.67;100.00
44140;BME280;29803;51.048;4.686;2023-04-01T05:29:25;99608.00;;;8.73;100.00
44140;BME280;29803;51.048;4.686;2023-04-01T05:31:56;99616.41;;;8.70;100.00
44140;BME280;29803;51.048;4.686;2023-04-01T05:34:26;99622.13;;;8.67;100.00
44140;BME280;29803;51.048;4.686;2023-04-01T05:36:57;99619.91;;;8.70;100.00
44140;BME280;29803;51.048;4.686;2023-04-01T05:39:27;99619.91;;;8.70;100.00
44140;BME280;29803;51.048;4.686;2023-04-01T05:41:58;99625.91;;;8.72;100.00
44140;BME280;29803;51.048;4.686;2023-04-01T05:44:29;99630.41;;;8.72;100.00
44140;BME280;29803;51.048;4.686;2023-04-01T05:46:59;99631.63;;;8.69;100.00
44140;BME280;29803;51.048;4.686;2023-04-01T05:49:30;99638.63;;;8.70;100.00
44140;BME280;29803;51.048;4.686;2023-04-01T05:52:01;99641.31;;;8.70;100.00
44140;BME280;29803;51.048;4.686;2023-04-01T05:54:31;99646.25;;;8.73;100.00
44140;BME280;29803;51.048;4.686;2023-04-01T05:57:03;99643.16;;;8.70;100.00
44140;BME280;29803;51.048;4.686;2023-04-01T05:59:33;99645.81;;;8.70;100.00
44140;BME280;29803;51.048;4.686;2023-04-01T06:02:05;99641.50;;;8.69;100.00
44140;BME280;29803;51.048;4.686;2023-04-01T06:04:39;99660.38;;;8.67;100.00
44140;BME280;29803;51.048;4.686;2023-04-01T06:07:14;99670.06;;;8.68;100.00
44140;BME280;29803;51.048;4.686;2023-04-01T06:09:45;99671.75;;;8.69;100.00
44140;BME280;29803;51.048;4.686;2023-04-01T06:12:36;99670.53;;;8.72;100.00
44140;BME280;29803;51.048;4.686;2023-04-01T06:24:13;99686.22;;;8.75;100.00
44140;BME280;29803;51.048;4.686;2023-04-01T06:41:21;99708.97;;;8.71;100.00
44140;BME280;29803;51.048;4.686;2023-04-01T06:44:15;99720.03;;;8.68;100.00
44140;BME280;29803;51.048;4.686;2023-04-01T06:46:58;99717.19;;;8.69;100.00
44140;BME280;29803;51.048;4.686;2023-04-01T06:52:27;99721.88;;;8.67;100.00
44140;BME280;29803;51.048;4.686;2023-04-01T06:55:21;99730.72;;;8.68;100.00
44140;BME280;29803;51.048;4.686;2023-04-01T06:57:57;99732.41;;;8.69;100.00
44140;BME280;29803;51.048;4.686;2023-04-01T07:00:32;99732.56;;;8.67;100.00
44140;BME280;29803;51.048;4.686;2023-04-01T07:05:59;99739.13;;;8.65;100.00
44140;BME280;29803;51.048;4.686;2023-04-01T07:08:35;99749.97;;;8.63;100.00
44140;BME280;29803;51.048;4.686;2023-04-01T07:11:09;99743.44;;;8.66;100.00
44140;BME280;29803;51.048;4.686;2023-04-01T07:13:49;99749.91;;;8.71;100.00
44140;BME280;29803;51.048;4.686;2023-04-01T07:16:43;99757.59;;;8.74;100.00
44140;BME280;29803;51.048;4.686;2023-04-01T07:22:34;99764.59;;;8.75;100.00
44140;BME280;29803;51.048;4.686;2023-04-01T07:25:11;99768.28;;;8.74;100.00
44140;BME280;29803;51.048;4.686;2023-04-01T07:27:43;99766.44;;;8.75;100.00
44140;BME280;29803;51.048;4.686;2023-04-01T07:30:17;99765.22;;;8.77;100.00
44140;BME280;29803;51.048;4.686;2023-04-01T07:33:11;99782.09;;;8.78;100.00
44140;BME280;29803;51.048;4.686;2023-04-01T07:35:52;99777.44;;;8.80;100.00
44140;BME280;29803;51.048;4.686;2023-04-01T07:41:31;99788.59;;;8.84;100.00
44140;BME280;29803;51.048;4.686;2023-04-01T07:44:10;99786.56;;;8.86;100.00
44140;BME280;29803;51.048;4.686;2023-04-01T07:47:05;99803.09;;;8.89;100.00
44140;BME280;29803;51.048;4.686;2023-04-01T07:56:19;99812.38;;;8.93;100.00
44140;BME280;29803;51.048;4.686;2023-04-01T08:04:51;99829.22;;;9.02;100.00
44140;BME280;29803;51.048;4.686;2023-04-01T08:07:49;99822.41;;;8.99;100.00
44140;BME280;29803;51.048;4.686;2023-04-01T08:10:31;99833.19;;;9.06;100.00
44140;BME280;29803;51.048;4.686;2023-04-01T08:19:04;99841.03;;;9.07;100.00
44140;BME280;29803;51.048;4.686;2023-04-01T08:21:57;99850.38;;;9.12;100.00
44140;BME280;29803;51.048;4.686;2023-04-01T08:24:35;99852.69;;;9.15;100.00
44140;BME280;29803;51.048;4.686;2023-04-01T08:27:17;99851.66;;;9.16;100.00
44140;BME280;29803;51.048;4.686;2023-04-01T08:30:20;99855.81;;;9.18;100.00
44140;BME280;29803;51.048;4.686;2023-04-01T08:32:57;99858.31;;;9.20;100.00
44140;BME280;29803;51.048;4.686;2023-04-01T08:35:34;99863.97;;;9.25;100.00
44140;BME280;29803;51.048;4.686;2023-04-01T08:38:13;99871.72;;;9.20;100.00
44140;BME280;29803;51.048;4.686;2023-04-01T08:52:29;99888.22;;;9.23;100.00
44140;BME280;29803;51.048;4.686;2023-04-01T09:00:53;99898.38;;;9.28;100.00
44140;BME280;29803;51.048;4.686;2023-04-01T09:24:07;99914.50;;;9.57;100.00
44140;BME280;29803;51.048;4.686;2023-04-01T09:27:04;99905.09;;;9.62;100.00
44140;BME280;29803;51.048;4.686;2023-04-01T09:29:51;99910.25;;;9.63;100.00
44140;BME280;29803;51.048;4.686;2023-04-01T09:35:54;99915.06;;;9.68;100.00
44140;BME280;29803;51.048;4.686;2023-04-01T09:42:14;99915.53;;;9.71;100.00
44140;BME280;29803;51.048;4.686;2023-04-01T09:56:02;99935.50;;;9.83;100.00
44140;BME280;29803;51.048;4.686;2023-04-01T10:22:11;99961.03;;;10.24;100.00
44140;BME280;29803;51.048;4.686;2023-04-01T10:30:34;99962.41;;;10.20;100.00
44140;BME280;29803;51.048;4.686;2023-04-01T10:39:19;99976.19;;;10.17;100.00
44140;BME280;29803;51.048;4.686;2023-04-01T10:45:32;99975.06;;;9.96;100.00
44140;BME280;29803;51.048;4.686;2023-04-01T10:48:13;99979.13;;;9.92;100.00
44140;BME280;29803;51.048;4.686;2023-04-01T10:54:14;99980.34;;;10.04;100.00
44140;BME280;29803;51.048;4.686;2023-04-01T11:11:39;99994.34;;;10.29;100.00
44140;BME280;29803;51.048;4.686;2023-04-01T11:17:28;99997.91;;;10.66;100.00
44140;BME280;29803;51.048;4.686;2023-04-01T11:23:37;100001.78;;;10.63;100.00
44140;BME280;29803;51.048;4.686;2023-04-01T11:26:33;100009.41;;;10.45;100.00
44140;BME280;29803;51.048;4.686;2023-04-01T11:29:19;100016.69;;;10.36;100.00
44140;BME280;29803;51.048;4.686;2023-04-01T11:44:24;100033.69;;;10.29;100.00
44140;BME280;29803;51.048;4.686;2023-04-01T11:50:21;100046.97;;;10.22;100.00
44140;BME280;29803;51.048;4.686;2023-04-01T11:53:18;100050.59;;;10.15;100.00
44140;BME280;29803;51.048;4.686;2023-04-01T12:02:11;100053.56;;;9.82;100.00
44140;BME280;29803;51.048;4.686;2023-04-01T12:05:08;100060.00;;;9.73;100.00
44140;BME280;29803;51.048;4.686;2023-04-01T12:08:07;100057.69;;;9.70;100.00
44140;BME280;29803;51.048;4.686;2023-04-01T12:18:38;100080.34;;;9.82;100.00
44140;BME280;29803;51.048;4.686;2023-04-01T12:39:17;100095.94;;;10.24;100.00
44140;BME280;29803;51.048;4.686;2023-04-01T12:42:20;100100.09;;;10.42;100.00
44140;BME280;29803;51.048;4.686;2023-04-01T12:54:02;100117.97;;;10.49;100.00
44140;BME280;29803;51.048;4.686;2023-04-01T12:57:02;100108.06;;;10.50;100.00
44140;BME280;29803;51.048;4.686;2023-04-01T13:17:30;100136.13;;;10.24;100.00
44140;BME280;29803;51.048;4.686;2023-04-01T13:22:59;100136.22;;;10.08;100.00
44140;BME280;29803;51.048;4.686;2023-04-01T13:34:34;100155.38;;;10.05;100.00
44140;BME280;29803;51.048;4.686;2023-04-01T13:37:18;100149.75;;;10.15;100.00
44140;BME280;29803;51.048;4.686;2023-04-01T13:43:19;100159.94;;;10.19;100.00
44140;BME280;29803;51.048;4.686;2023-04-01T13:46:04;100158.25;;;10.18;100.00
44140;BME280;29803;51.048;4.686;2023-04-01T13:48:58;100161.19;;;10.08;100.00
44140;BME280;29803;51.048;4.686;2023-04-01T13:51:58;100159.75;;;9.98;100.00
44140;BME280;29803;51.048;4.686;2023-04-01T14:00:46;100168.09;;;9.80;100.00
44140;BME280;29803;51.048;4.686;2023-04-01T14:03:43;100174.41;;;9.87;100.00
44140;BME280;29803;51.048;4.686;2023-04-01T14:06:38;100177.03;;;9.95;100.00
44140;BME280;29803;51.048;4.686;2023-04-01T14:09:17;100175.00;;;9.97;100.00
44140;BME280;29803;51.048;4.686;2023-04-01T14:12:09;100179.34;;;9.98;100.00
44140;BME280;29803;51.048;4.686;2023-04-01T14:24:04;100191.88;;;10.06;100.00
44140;BME280;29803;51.048;4.686;2023-04-01T14:35:11;100196.63;;;9.96;100.00
44140;BME280;29803;51.048;4.686;2023-04-01T14:41:11;100201.50;;;10.15;100.00
44140;BME280;29803;51.048;4.686;2023-04-01T14:44:11;100204.97;;;10.24;100.00
44140;BME280;29803;51.048;4.686;2023-04-01T14:50:05;100214.91;;;10.38;100.00
44140;BME280;29803;51.048;4.686;2023-04-01T14:52:40;100204.88;;;10.40;100.00
44140;BME280;29803;51.048;4.686;2023-04-01T14:55:32;100209.84;;;10.43;100.00
44140;BME280;29803;51.048;4.686;2023-04-01T15:06:45;100222.81;;;10.40;100.00
44140;BME280;29803;51.048;4.686;2023-04-01T15:12:35;100236.06;;;10.33;100.00
44140;BME280;29803;51.048;4.686;2023-04-01T15:27:15;100253.09;;;10.17;100.00
44140;BME280;29803;51.048;4.686;2023-04-01T15:30:23;100250.00;;;10.28;100.00
44140;BME280;29803;51.048;4.686;2023-04-01T15:47:29;100264.22;;;10.06;100.00
44140;BME280;29803;51.048;4.686;2023-04-01T15:53:16;100268.13;;;9.95;100.00
44140;BME280;29803;51.048;4.686;2023-04-01T15:58:30;100277.41;;;9.84;100.00
44140;BME280;29803;51.048;4.686;2023-04-01T16:01:27;100283.31;;;9.72;100.00
44140;BME280;29803;51.048;4.686;2023-04-01T16:15:57;100302.53;;;9.28;100.00
44140;BME280;29803;51.048;4.686;2023-04-01T16:18:45;100310.44;;;9.29;100.00
44140;BME280;29803;51.048;4.686;2023-04-01T16:31:00;100324.16;;;9.10;100.00
44140;BME280;29803;51.048;4.686;2023-04-01T16:33:55;100322.50;;;9.09;100.00
44140;BME280;29803;51.048;4.686;2023-04-01T16:45:38;100334.72;;;8.95;100.00
44140;BME280;29803;51.048;4.686;2023-04-01T16:48:14;100339.88;;;8.97;100.00
44140;BME280;29803;51.048;4.686;2023-04-01T17:00:30;100349.25;;;9.01;100.00
44140;BME280;29803;51.048;4.686;2023-04-01T17:03:13;100355.44;;;9.01;100.00
44140;BME280;29803;51.048;4.686;2023-04-01T17:12:24;100359.81;;;8.94;100.00
44140;BME280;29803;51.048;4.686;2023-04-01T17:15:18;100369.50;;;8.95;100.00
44140;BME280;29803;51.048;4.686;2023-04-01T17:18:03;100368.81;;;8.93;100.00
44140;BME280;29803;51.048;4.686;2023-04-01T17:23:45;100381.53;;;8.91;100.00
44140;BME280;29803;51.048;4.686;2023-04-01T17:32:21;100385.72;;;8.94;100.00
44140;BME280;29803;51.048;4.686;2023-04-01T17:35:16;100395.75;;;8.92;100.00
44140;BME280;29803;51.048;4.686;2023-04-01T17:38:13;100386.53;;;8.86;100.00
44140;BME280;29803;51.048;4.686;2023-04-01T17:40:57;100401.44;;;8.89;100.00
44140;BME280;29803;51.048;4.686;2023-04-01T18:01:30;100427.00;;;8.91;100.00
44140;BME280;29803;51.048;4.686;2023-04-01T18:18:45;100461.13;;;8.97;100.00
44140;BME280;29803;51.048;4.686;2023-04-01T18:27:46;100466.63;;;8.88;100.00
44140;BME280;29803;51.048;4.686;2023-04-01T18:30:22;100476.13;;;8.82;100.00
44140;BME280;29803;51.048;4.686;2023-04-01T18:33:19;100479.16;;;8.79;100.00
44140;BME280;29803;51.048;4.686;2023-04-01T18:38:49;100492.31;;;8.72;100.00
44140;BME280;29803;51.048;4.686;2023-04-01T18:44:25;100499.53;;;8.72;100.00
44140;BME280;29803;51.048;4.686;2023-04-01T18:47:05;100504.88;;;8.72;100.00
44140;BME280;29803;51.048;4.686;2023-04-01T18:52:47;100510.38;;;8.70;100.00
44140;BME280;29803;51.048;4.686;2023-04-01T18:55:28;100513.22;;;8.69;100.00
44140;BME280;29803;51.048;4.686;2023-04-01T18:58:22;100518.59;;;8.69;100.00
44140;BME280;29803;51.048;4.686;2023-04-01T19:06:30;100531.25;;;8.67;100.00
44140;BME280;29803;51.048;4.686;2023-04-01T19:09:18;100534.28;;;8.64;100.00
44140;BME280;29803;51.048;4.686;2023-04-01T19:21:19;100551.81;;;8.66;100.00
44140;BME280;29803;51.048;4.686;2023-04-01T19:30:27;100568.38;;;8.70;100.00
44140;BME280;29803;51.048;4.686;2023-04-01T19:44:21;100577.25;;;8.70;100.00
44140;BME280;29803;51.048;4.686;2023-04-01T19:52:42;100596.84;;;8.79;100.00
44140;BME280;29803;51.048;4.686;2023-04-01T19:55:30;100604.00;;;8.78;100.00
44140;BME280;29803;51.048;4.686;2023-04-01T20:00:51;100594.84;;;8.81;100.00
44140;BME280;29803;51.048;4.686;2023-04-01T20:03:35;100605.38;;;8.82;100.00
44140;BME280;29803;51.048;4.686;2023-04-01T20:22:59;100640.06;;;9.00;100.00
44140;BME280;29803;51.048;4.686;2023-04-01T20:25:46;100642.41;;;9.03;100.00
44140;BME280;29803;51.048;4.686;2023-04-01T20:28:25;100648.28;;;9.07;100.00
44140;BME280;29803;51.048;4.686;2023-04-01T20:31:23;100652.81;;;9.06;100.00
44140;BME280;29803;51.048;4.686;2023-04-01T20:34:08;100652.50;;;9.10;100.00
44140;BME280;29803;51.048;4.686;2023-04-01T20:37:02;100663.56;;;9.15;100.00
44140;BME280;29803;51.048;4.686;2023-04-01T20:42:34;100660.88;;;9.15;100.00
44140;BME280;29803;51.048;4.686;2023-04-01T20:48:05;100675.63;;;9.19;100.00
44140;BME280;29803;51.048;4.686;2023-04-01T20:57:14;100701.84;;;9.15;100.00
44140;BME280;29803;51.048;4.686;2023-04-01T21:00:11;100706.03;;;9.18;100.00
44140;BME280;29803;51.048;4.686;2023-04-01T21:02:52;100709.88;;;9.15;100.00
44140;BME280;29803;51.048;4.686;2023-04-01T21:05:50;100718.75;;;9.16;100.00
44140;BME280;29803;51.048;4.686;2023-04-01T21:11:25;100723.44;;;9.14;100.00
44140;BME280;29803;51.048;4.686;2023-04-01T21:22:55;100747.13;;;9.08;100.00
44140;BME280;29803;51.048;4.686;2023-04-01T21:31:44;100751.09;;;8.96;100.00
44140;BME280;29803;51.048;4.686;2023-04-01T21:34:41;100760.41;;;8.92;100.00
44140;BME280;29803;51.048;4.686;2023-04-01T21:40:33;100783.13;;;8.88;100.00
44140;BME280;29803;51.048;4.686;2023-04-01T21:48:45;100795.84;;;8.86;100.00
44140;BME280;29803;51.048;4.686;2023-04-01T22:00:36;100802.50;;;8.82;100.00
44140;BME280;29803;51.048;4.686;2023-04-01T22:09:21;100828.69;;;8.78;100.00
44140;BME280;29803;51.048;4.686;2023-04-01T22:12:15;100839.72;;;8.75;100.00
44140;BME280;29803;51.048;4.686;2023-04-01T22:15:14;100845.06;;;8.75;100.00
44140;BME280;29803;51.048;4.686;2023-04-01T22:20:50;100847.28;;;8.80;100.00
44140;BME280;29803;51.048;4.686;2023-04-01T22:26:50;100855.06;;;8.73;100.00
44140;BME280;29803;51.048;4.686;2023-04-01T22:29:31;100861.97;;;8.76;100.00
44140;BME280;29803;51.048;4.686;2023-04-01T22:32:23;100863.09;;;8.73;100.00
44140;BME280;29803;51.048;4.686;2023-04-01T22:41:08;100875.03;;;8.61;100.00
44140;BME280;29803;51.048;4.686;2023-04-01T22:43:45;100885.91;;;8.60;100.00
44140;BME280;29803;51.048;4.686;2023-04-01T22:49:29;100899.56;;;8.56;100.00
44140;BME280;29803;51.048;4.686;2023-04-01T22:52:08;100891.69;;;8.55;100.00
44140;BME280;29803;51.048;4.686;2023-04-01T22:54:48;100904.53;;;8.51;100.00
44140;BME280;29803;51.048;4.686;2023-04-01T22:57:50;100913.53;;;8.50;100.00
44140;BME280;29803;51.048;4.686;2023-04-01T23:00:39;100914.81;;;8.46;100.00
44140;BME280;29803;51.048;4.686;2023-04-01T23:03:28;100925.69;;;8.45;100.00
44140;BME280;29803;51.048;4.686;2023-04-01T23:06:02;100920.47;;;8.43;100.00
44140;BME280;29803;51.048;4.686;2023-04-01T23:08:56;100929.47;;;8.42;100.00
44140;BME280;29803;51.048;4.686;2023-04-01T23:11:44;100933.44;;;8.38;100.00
44140;BME280;29803;51.048;4.686;2023-04-01T23:17:18;100942.03;;;8.32;100.00
44140;BME280;29803;51.048;4.686;2023-04-01T23:20:05;100940.34;;;8.31;100.00
44140;BME280;29803;51.048;4.686;2023-04-01T23:25:36;100962.72;;;8.30;100.00
44140;BME280;29803;51.048;4.686;2023-04-01T23:31:36;100966.97;;;8.23;100.00
44140;BME280;29803;51.048;4.686;2023-04-01T23:34:27;100975.97;;;8.22;100.00
44140;BME280;29803;51.048;4.686;2023-04-01T23:37:03;100984.84;;;8.22;100.00
44140;BME280;29803;51.048;4.686;2023-04-01T23:39:37;100985.16;;;8.19;100.00
44140;BME280;29803;51.048;4.686;2023-04-01T23:45:13;101002.31;;;8.17;100.00